Andrews, SC

1:02 PM EDT on September 16, 2014 (GMT -0400)
Conway-Horry County | Change Station
CLOSE
Current Station
Airport
Location: Conway,
Elevation: 33 ft
Nearby Weather Stations

Elev 33 ft 33.83 °N, 79.12 °W | Updated 27 minutes ago

Overcast
Overcast
79 °F
Feels Like 79 °F
N
0
Wind Variable Wind from North

Today
High -- | Low -- °F
--% Chance of Precip.
Yesterday
High -- | Low -- °F
Precip. -- in
7:02 AM 7:23 PM
Last Quarter, 44% visible
Pressure 30.02 in
Visibility 7.0 miles
Clouds Scattered Clouds 2200 ft
Scattered Clouds 2800 ft
Overcast 3200 ft
Dew Point 77 °F
Humidity 94%
Rainfall 0.00 in
Snow Depth Not available.
UV 3 out of 12
Pollen 8.30 out of 12
Air Quality Not available.
Flu Activity Not available.
METAR KHYW 161635Z AUTO 00000KT 7SM SCT022 SCT028 OVC032 26/25 A3002 RMK AO2 LTG DSNT E

More Conditions Fewer Conditions

Pressure 30.02 in
Visibility 7.0 miles
Clouds Scattered Clouds 2200 ft
Scattered Clouds 2800 ft
Overcast 3200 ft
Dew Point 77 °F
Humidity 94%
Rainfall 0.00 in
Snow Depth Not available.
UV 3 out of 12
Pollen 8.30 out of 12
Air Quality Not available.
Flu Activity Not available.
METAR KHYW 161635Z AUTO 00000KT 7SM SCT022 SCT028 OVC032 26/25 A3002 RMK AO2 LTG DSNT E

More Conditions Fewer Conditions

10-Day Weather Forecast

Almanac

Astronomy

Sep. 16, 2014 Rise Set
Actual Time 7:02 AM EDT 7:23 PM EDT
Civil Twilight 6:37 AM EDT 7:48 PM EDT
Nautical Twilight 6:08 AM EDT 8:17 PM EDT
Astronomical Twilight 5:38 AM EDT 8:46 PM EDT
Moon 12:23 AM EDT 2:33 PM EDT
Length of Visible Light 13h 10m
Length of Day
12h 20m
Tomorrow will be 2m 3s shorter.
Last Quarter, 44% of the Moon is Illuminated
Today
Last Quarter
Sep 24
New
Oct 1
First Quarter
Oct 8
Full
Oct 15
Last Quarter

Today's Extremes

State Highs State Lows

Community

WunderPhotos

Upload Photos

1,753,832 photos uploaded!

Nearby

Snow Depth

Station Depth Elevation
No new snow has been reported.

Earthquake Activity

City Distance Mag. Time & Date
No recent earthquake activity has been reported nearby.
Minimum magnitude displayed is 2.5.

Coastal Water Temperatures

Place Temperature
Springmaid Pier, SC 81.0 °F

Nearby Weather Stations